Time;durP1;ratioP1;P1;durP2;ratioP2;P2;SDS_P1;SDS_P2;PMS_P1;PMS_P2;Temp;Humidity;BMP_temperature;BMP_pressure;BME280_temperature;BME280_humidity;BME280_pressure;Samples;Min_cycle;Max_cycle;Signal;HPM_P1;HPM_P2
2022/01/24 00:07:59;;;;;;;5.40;1.60;;;7.60;88.20;;;;;;20925411;28;20204;-63
2022/01/24 00:18:05;;;;;;;5.63;2.03;;;7.60;87.90;;;;;;20919657;28;20234;-63
2022/01/24 00:28:07;;;;;;;2.47;1.70;;;7.60;88.60;;;;;;20919420;28;20256;-63
2022/01/24 00:38:09;;;;;;;4.53;1.50;;;7.60;88.20;;;;;;20917915;28;20235;-64
2022/01/24 00:58:12;;;;;;;2.10;1.33;;;7.60;87.60;;;;;;20916144;28;20251;-61
2022/01/24 01:18:36;;;;;;;1.63;1.53;;;7.60;87.00;;;;;;20912782;28;20242;-63
2022/01/24 01:28:42;;;;;;;1.57;1.40;;;7.50;87.00;;;;;;20911449;28;20344;-63
2022/01/24 01:59:05;;;;;;;1.30;1.17;;;7.50;86.90;;;;;;20912328;28;20250;-63
2022/01/24 02:09:11;;;;;;;1.30;1.20;;;7.60;86.90;;;;;;20920200;28;20205;-63
2022/01/24 02:29:41;;;;;;;1.60;1.40;;;7.60;86.90;;;;;;20928111;28;20204;-63
2022/01/24 02:59:32;;;;;;;1.93;1.30;;;7.60;87.00;;;;;;20984422;28;20561;-63
2022/01/24 03:09:34;;;;;;;4.30;1.40;;;7.60;86.80;;;;;;20984133;28;20217;-63
2022/01/24 03:19:37;;;;;;;1.30;1.20;;;7.60;86.80;;;;;;20965012;28;20211;-63
2022/01/24 03:29:39;;;;;;;3.10;1.30;;;7.60;86.70;;;;;;20897145;28;20226;-63
2022/01/24 03:39:40;;;;;;;1.43;1.27;;;7.70;86.70;;;;;;20899027;28;20209;-63
2022/01/24 03:49:45;;;;;;;2.00;1.50;;;7.60;86.40;;;;;;20897567;28;20669;-64
2022/01/24 03:59:47;;;;;;;2.80;1.20;;;7.50;86.30;;;;;;20897335;28;20846;-64
2022/01/24 04:09:50;;;;;;;1.70;1.10;;;7.50;86.30;;;;;;20847681;28;20671;-66
2022/01/24 04:29:54;;;;;;;3.97;1.00;;;7.50;86.20;;;;;;20844075;28;20729;-64
2022/01/24 04:39:56;;;;;;;3.27;1.00;;;7.50;86.70;;;;;;20842028;28;20269;-64
2022/01/24 05:00:18;;;;;;;1.57;1.37;;;7.50;86.10;;;;;;20841709;28;20677;-64
2022/01/24 05:10:30;;;;;;;1.70;1.30;;;7.60;86.20;;;;;;20839043;28;20234;-63
2022/01/24 05:30:52;;;;;;;1.57;1.40;;;7.60;86.20;;;;;;20832743;28;20235;-64
2022/01/24 05:40:58;;;;;;;1.60;1.30;;;7.50;86.10;;;;;;20834608;28;20298;-65
2022/01/24 05:50:59;;;;;;;2.00;1.13;;;7.60;86.00;;;;;;20833828;28;20645;-63
2022/01/24 06:03:34;;;;;;;1.40;1.30;;;7.60;86.10;;;;;;20984033;28;20556;-64
2022/01/24 06:13:35;;;;;;;3.07;1.23;;;7.50;86.00;;;;;;20983061;28;20254;-63
2022/01/24 06:23:37;;;;;;;2.43;1.50;;;7.50;86.10;;;;;;20982368;28;20204;-62
2022/01/24 06:33:39;;;;;;;3.13;1.60;;;7.50;86.30;;;;;;20983628;28;20208;-62
2022/01/24 06:43:40;;;;;;;5.63;2.00;;;7.50;86.40;;;;;;20979462;28;20627;-64
2022/01/24 06:53:42;;;;;;;4.90;1.90;;;7.50;86.40;;;;;;20979519;28;20633;-66
2022/01/24 07:03:44;;;;;;;2.30;1.40;;;7.60;86.60;;;;;;20978540;28;20214;-63
2022/01/24 07:13:46;;;;;;;1.43;1.30;;;7.60;86.60;;;;;;20927796;28;20614;-64
2022/01/24 07:23:47;;;;;;;2.17;1.73;;;7.60;86.90;;;;;;20883103;28;20624;-69
2022/01/24 07:33:51;;;;;;;4.23;1.97;;;7.60;86.90;;;;;;20836307;28;20237;-64
2022/01/24 07:50:06;;;;;;;2.93;2.00;;;;;;;;;;20982720;28;20560;-65
2022/01/24 08:00:10;;;;;;;2.87;2.17;;;7.70;87.10;;;;;;20982351;28;20210;-62
2022/01/24 08:10:12;;;;;;;3.47;2.30;;;7.60;87.20;;;;;;20983209;28;20213;-63
2022/01/24 08:20:19;;;;;;;2.13;1.93;;;7.70;87.50;;;;;;20979897;28;20230;-64
2022/01/24 08:30:41;;;;;;;4.23;2.50;;;7.60;87.50;;;;;;20979972;28;20213;-62
2022/01/24 08:40:46;;;;;;;3.93;2.83;;;7.70;88.20;;;;;;20979724;28;20238;-63
2022/01/24 08:57:46;;;;;;;3.10;2.20;;;7.80;87.60;;;;;;21067345;28;20288;-65
2022/01/24 09:07:48;;;;;;;3.43;1.70;;;7.80;87.60;;;;;;21061390;28;20230;-65
2022/01/24 09:17:50;;;;;;;3.27;2.00;;;7.80;87.60;;;;;;21032927;28;20210;-64
2022/01/24 09:27:52;;;;;;;3.77;2.50;;;7.80;87.50;;;;;;21003406;28;20207;-64
2022/01/24 09:37:55;;;;;;;2.60;1.97;;;7.80;87.40;;;;;;20979503;28;20240;-64
2022/01/24 09:47:57;;;;;;;4.70;2.87;;;7.90;87.70;;;;;;21061894;28;20210;-64
2022/01/24 09:57:59;;;;;;;6.93;2.70;;;7.90;87.60;;;;;;21145897;28;20209;-64
2022/01/24 10:08:03;;;;;;;7.37;2.80;;;8.00;87.70;;;;;;21095456;28;20205;-64
2022/01/24 10:18:07;;;;;;;2.30;2.10;;;8.00;87.80;;;;;;21040564;28;20608;-62
2022/01/24 10:28:20;;;;;;;4.07;1.90;;;8.10;87.90;;;;;;21006323;28;20233;-69
2022/01/24 10:38:44;;;;;;;5.53;2.50;;;8.10;87.80;;;;;;21003208;28;20205;-67
2022/01/24 10:49:01;;;;;;;3.60;1.80;;;8.10;87.90;;;;;;21001675;28;20231;-63
2022/01/24 10:59:21;;;;;;;2.63;2.23;;;8.00;87.70;;;;;;20984256;28;20271;-72
2022/01/24 11:09:22;;;;;;;5.00;2.70;;;8.00;87.60;;;;;;20999711;28;20241;-63
2022/01/24 11:29:28;;;;;;;4.23;2.60;;;8.10;87.90;;;;;;20996459;28;20241;-68
2022/01/24 11:39:31;;;;;;;7.87;3.17;;;8.20;87.80;;;;;;20998857;28;20215;-70
2022/01/24 11:49:38;;;;;;;3.73;3.20;;;8.20;87.80;;;;;;20997610;28;20250;-69
2022/01/24 11:59:40;;;;;;;8.53;3.57;;;8.10;87.80;;;;;;20979136;28;20601;-68
2022/01/24 12:09:42;;;;;;;4.17;3.50;;;8.20;88.50;;;;;;20995950;28;20692;-65
2022/01/24 12:19:43;;;;;;;6.33;4.20;;;8.10;87.70;;;;;;20994764;28;20264;-66
2022/01/24 12:29:45;;;;;;;8.63;4.60;;;8.20;88.00;;;;;;20994390;28;20640;-65
2022/01/24 12:40:00;;;;;;;9.93;4.70;;;8.20;88.00;;;;;;20994530;28;20214;-65
2022/01/24 12:50:02;;;;;;;9.43;5.00;;;8.20;88.00;;;;;;20998238;28;20247;-63
2022/01/24 13:00:07;;;;;;;8.60;4.73;;;8.20;88.10;;;;;;21042262;28;20523;-62
2022/01/24 13:10:14;;;;;;;12.13;4.90;;;8.20;88.20;;;;;;21049718;28;20230;-66
2022/01/24 13:21:08;;;;;;;5.97;4.53;;;8.20;88.20;;;;;;20993039;28;20260;-73
2022/01/24 13:30:49;;;;;;;8.57;5.93;;;8.20;88.00;;;;;;20988294;28;20694;-67
2022/01/24 13:40:54;;;;;;;10.43;6.00;;;8.20;88.10;;;;;;21050544;28;20573;-64
2022/01/24 13:50:58;;;;;;;5.70;4.50;;;8.20;88.10;;;;;;21083491;28;20603;-66
2022/01/24 14:01:01;;;;;;;6.53;4.20;;;8.10;87.70;;;;;;21090302;28;20214;-63
2022/01/24 14:11:14;;;;;;;13.23;5.63;;;8.00;87.70;;;;;;21088604;28;20293;-66
2022/01/24 14:21:18;;;;;;;11.97;6.57;;;8.00;87.80;;;;;;21054438;28;20214;-64
2022/01/24 14:31:23;;;;;;;8.87;6.33;;;8.10;87.90;;;;;;21002617;28;20241;-62
2022/01/24 14:41:45;;;;;;;13.63;7.47;;;8.00;88.10;;;;;;21001731;28;20217;-65
2022/01/24 14:51:47;;;;;;;8.30;6.10;;;8.00;88.20;;;;;;21001224;28;20774;-62
2022/01/24 15:01:49;;;;;;;6.80;5.80;;;8.00;88.30;;;;;;21000249;28;20805;-63
2022/01/24 15:11:52;;;;;;;14.77;7.40;;;8.00;88.20;;;;;;21000420;28;20307;-62
2022/01/24 15:32:14;;;;;;;10.53;6.40;;;7.90;88.30;;;;;;21026643;28;20287;-66
2022/01/24 15:42:31;;;;;;;12.83;7.00;;;8.00;88.40;;;;;;21043330;28;20195;-66
2022/01/24 15:52:33;;;;;;;13.17;7.27;;;7.90;88.60;;;;;;21075602;28;20256;-64
2022/01/24 16:02:35;;;;;;;11.17;7.27;;;7.90;88.70;;;;;;21091036;28;20218;-68
2022/01/24 16:12:43;;;;;;;7.97;6.10;;;7.90;88.70;;;;;;21083118;28;20244;-63
2022/01/24 16:33:01;;;;;;;15.33;7.73;;;7.80;88.60;;;;;;20995295;28;20234;-64
2022/01/24 16:53:24;;;;;;;10.90;6.80;;;7.80;89.20;;;;;;21009399;28;20246;-76
2022/01/24 17:03:27;;;;;;;14.57;7.10;;;7.60;88.90;;;;;;21078104;28;20210;-66
2022/01/24 17:13:29;;;;;;;13.20;7.67;;;7.70;89.10;;;;;;21083849;28;20323;-65
2022/01/24 17:23:31;;;;;;;15.30;8.23;;;7.60;88.90;;;;;;21093503;28;20205;-63
2022/01/24 17:33:33;;;;;;;11.30;7.03;;;7.60;88.90;;;;;;21092604;28;20241;-62
2022/01/24 17:43:34;;;;;;;11.87;7.80;;;7.50;88.80;;;;;;21091886;28;20210;-62
2022/01/24 17:53:39;;;;;;;13.23;7.77;;;7.50;88.80;;;;;;21091873;28;20340;-61
2022/01/24 18:03:41;;;;;;;10.47;6.97;;;7.50;88.90;;;;;;21073083;28;20208;-69
2022/01/24 18:13:43;;;;;;;11.90;8.83;;;7.50;89.00;;;;;;21089823;28;20228;-59
2022/01/24 18:23:45;;;;;;;13.07;8.13;;;;;;;;;;21043359;28;20267;-63
2022/01/24 18:33:47;;;;;;;14.23;9.90;;;7.60;88.90;;;;;;21035106;28;20690;-74
2022/01/24 18:43:49;;;;;;;12.03;8.40;;;7.40;88.80;;;;;;21004047;28;20205;-62
2022/01/24 18:53:50;;;;;;;14.17;8.43;;;7.50;88.90;;;;;;21063462;28;20236;-61
2022/01/24 19:03:52;;;;;;;11.70;8.90;;;7.50;88.70;;;;;;21078847;28;20710;-62
2022/01/24 19:13:54;;;;;;;12.37;8.97;;;7.50;88.60;;;;;;21085513;28;20302;-60
2022/01/24 19:23:55;;;;;;;16.30;7.60;;;7.40;88.50;;;;;;21058060;28;20198;-61
2022/01/24 19:33:57;;;;;;;17.33;9.37;;;7.40;88.70;;;;;;20999283;28;20710;-62
2022/01/24 19:43:59;;;;;;;12.23;8.43;;;7.40;88.90;;;;;;20999253;28;20206;-61
2022/01/24 19:54:01;;;;;;;16.67;9.30;;;7.40;89.40;;;;;;21002263;28;20230;-68
2022/01/24 20:04:02;;;;;;;15.27;10.00;;;7.40;88.70;;;;;;21010366;28;20202;-71
2022/01/24 20:14:04;;;;;;;12.23;8.47;;;7.40;88.70;;;;;;21072747;28;20230;-67
2022/01/24 20:24:06;;;;;;;13.40;9.23;;;7.30;88.50;;;;;;21022787;28;20227;-71
2022/01/24 20:34:08;;;;;;;12.87;9.23;;;7.40;88.70;;;;;;20995882;28;20233;-69
2022/01/24 20:44:09;;;;;;;13.97;9.03;;;7.30;88.60;;;;;;20996012;28;20618;-59
2022/01/24 20:54:11;;;;;;;15.10;9.00;;;7.30;88.60;;;;;;20999597;28;20244;-64
2022/01/24 21:04:13;;;;;;;17.20;10.30;;;7.30;88.50;;;;;;21079039;28;20204;-62
2022/01/24 21:14:15;;;;;;;16.07;9.47;;;7.20;88.40;;;;;;21017447;28;20230;-62
2022/01/24 21:24:17;;;;;;;17.13;10.90;;;7.20;88.40;;;;;;21056334;28;20287;-60
2022/01/24 21:44:24;;;;;;;18.03;10.93;;;6.90;88.60;;;;;;21010849;28;20223;-62
2022/01/24 21:54:25;;;;;;;18.07;11.40;;;6.90;89.30;;;;;;21072613;28;20243;-61
2022/01/24 22:04:27;;;;;;;18.87;12.17;;;6.60;88.70;;;;;;21081690;28;20233;-62
2022/01/24 22:14:29;;;;;;;17.43;10.77;;;6.10;89.20;;;;;;21091421;28;20235;-59
2022/01/24 22:24:30;;;;;;;20.53;11.60;;;6.00;90.00;;;;;;21097405;28;20210;-60
2022/01/24 22:34:32;;;;;;;18.07;11.27;;;5.70;90.10;;;;;;21079187;28;20235;-64
2022/01/24 22:44:35;;;;;;;19.13;10.33;;;5.50;90.20;;;;;;21085618;28;20719;-66
2022/01/24 22:54:37;;;;;;;19.33;10.43;;;5.40;90.40;;;;;;21069809;28;20246;-66
2022/01/24 23:04:40;;;;;;;19.23;11.30;;;5.30;90.50;;;;;;21086603;28;20260;-61
2022/01/24 23:25:06;;;;;;;17.83;10.13;;;4.90;90.90;;;;;;20997304;28;20223;-59
2022/01/24 23:45:31;;;;;;;21.40;10.50;;;4.60;91.20;;;;;;20999502;28;20610;-59
2022/01/24 23:55:34;;;;;;;17.97;9.70;;;4.50;91.20;;;;;;20998808;28;20247;-60
